Tiempo atmosférico en la estación meteorológica de Cervantes, Lugo (1020 m.)



Fecha
DESCASC
Temp. máxima en grados centígrados (hora)
DESCASC
Temp. mínima en grados centígrados (hora)
DESCASC
Temp. media en grados centígrados
DESCASC
Racha de viento máxima en m/sg (hora)
DESCASC
Velocidad máxima media en intervalos de 10 minutos(hora)
DESCASC
Precipitaciones diarias en mm
DESCASC
Precipitaciones de 00:00 a 06:00 en mm
DESCASC
Precipitaciones de 06:00 a 12:00 en mm
DESCASC
Precipitaciones de 12:00 a 18:00 en mm
DESCASC
Precipitaciones de 18:00 a 24:00 en mm
DESCASC
16-04-2019 16.4 (17:30) 2.9 (02:10) 9.6 13.89 (09:30) 6.67 (12:10) 0 0 0 0 0
15-04-2019 13.5 (00:40) 5.2 (22:20) 9.3 11.94 (06:50) 6.11 (06:50) 20.8 0 16.8 2.4 1.6
14-04-2019 18 (17:50) 9.7 (00:00) 13.8 5.83 (12:40) 2.78 (20:20) 0.4 0 0.2 0.2 0
13-04-2019 17.1 (17:00) 7.2 (00:00) 12.2 7.5 (09:50) 4.17 (11:30) 0 0 0 0 0
12-04-2019 16 (17:10) 2.8 (00:00) 9.4 5.83 (12:00) 3.61 (12:00) 0 0 0 0 0
11-04-2019 10.8 (17:50) -0.3 (00:00) 5.3 7.5 (15:00) 2.78 (01:30) 0.2 0.2 0 0 0
10-04-2019 7.8 (17:30) 2.7 (00:00) 5.3 11.39 (06:30) 4.44 (04:30) 14.8 3.8 8 3 0
09-04-2019 6.4 (14:30) 0.9 (00:00) 3.7 11.39 (23:10) 3.89 (18:10) 18.8 3 4.4 2.2 9.2
08-04-2019 9.4 (17:50) 2.9 (00:00) 6.1 11.11 (00:10) 6.11 (00:10) 8.4 5 1.4 0.8 1.2
07-04-2019 6.9 (13:30) -0.2 (00:00) 3.4 13.61 (19:20) 6.94 (18:50) 8.4 0.2 0 2.4 5.8
06-04-2019 2.5 (18:50) -0.4 (00:00) 1 9.17 (18:20) 3.61 (17:30) 23.2 3.8 3.4 13.2 2.8
05-04-2019 5.4 (15:10) -0.4 (00:00) 2.5 10.56 (14:10) 4.72 (15:30) 3.8 1.8 0.8 0.4 0.8
04-04-2019 3.8 (13:40) -0.8 (-00:0) 1.5 9.72 (14:00) 5.28 (21:10) 4.6 0.2 0.6 0.6 3.2
03-04-2019 3.8 (00:00) -0.6 (-00:0) 1.6 8.61 (15:00) 3.33 (18:20) 9.6 0.2 1.4 5.6 2.4
02-04-2019 11.2 (16:20) 2.1 (00:00) 6.6 7.5 (16:10) 3.33 (14:50) 0 0 0 0 0
01-04-2019 16.7 (17:30) 6.4 (00:00) 11.6 8.33 (04:50) 4.44 (05:50) 0 0 0 0 0
31-03-2019 16.4 (17:00) 8.2 (00:00) 12.3 10.83 (19:00) 5 (09:10) 0 0 0 0 0
30-03-2019 16.2 (12:30) 8.2 (00:00) 12.2 10.83 (13:30) 5.56 (13:40) 0 0 0 0 0
29-03-2019 17.5 (16:40) 8.7 (00:00) 13.1 10.28 (09:40) 6.11 (08:10) 0 0 0 0 0
28-03-2019 18.8 (15:20) 5.9 (00:00) 12.3 7.78 (13:20) 3.89 (13:20) 0 0 0 0 0
27-03-2019 18.5 (16:30) 7 (00:00) 12.8 10.56 (11:10) 5.56 (11:10) 0 0 0 0 0
26-03-2019 17.5 (16:30) 0.8 (00:00) 9.2 13.06 (15:50) 7.5 (17:10) 0 0 0 0 0
25-03-2019 15.5 (16:40) 3.6 (00:00) 9.5 6.94 (15:40) 3.33 (13:30) 0 0 0 0 0
24-03-2019 18.8 (16:30) 6.3 (00:00) 12.5 8.33 (15:20) 4.44 (06:20) 0 0 0 0 0
23-03-2019 19 (17:50) 7.1 (00:00) 13 9.17 (10:20) 5 (10:20) 0 0 0 0 0
22-03-2019 16.6 (16:40) 5.1 (00:00) 10.9 9.44 (00:30) 5 (01:50) 0 0 0 0 0
21-03-2019 15.9 (15:40) 4.1 (00:00) 10 9.72 (07:00) 5 (10:00) 0 0 0 0 0
20-03-2019 14.3 (15:50) -0.1 (00:00) 7.1 6.39 (16:30) 2.78 (19:00) 0 0 0 0 0
19-03-2019 10.3 (16:20) -0.3 (00:00) 5 7.78 (15:40) 3.61 (15:40) 0 0 0 0 0

Gráficas

Temp. máximas Temp. mínimas Temp. medias Precipitaciones Rachas de viento máximas Velocidades máximas media en intervalos de 10 minutos

Datos horarios

Fecha y hora oficial Temperatura (ºC) Velocidad del viento (km/h) Dirección del viento Racha (km/h) Dirección de racha Precipitación (mm) Presión (hPa) Tendencia (hPa) Humedad (%)
2019-04-17 23:00:00 7.8 11 Oeste 19 Noroeste 1.4 -- -- 88
2019-04-17 22:00:00 8.7 7 Oeste 19 Sudoeste 0.2 -- -- 82
2019-04-17 21:00:00 8.9 10 Sudoeste 18 Sudoeste 2 -- -- 88
2019-04-17 20:00:00 9.6 12 Oeste 24 Sudoeste 2.6 -- -- 83
2019-04-17 19:00:00 12.3 13 Oeste 28 Sudoeste 0 -- -- 63
2019-04-17 18:00:00 13.3 12 Sur 40 Sur 0 -- -- 50
2019-04-17 17:00:00 13.5 21 Sur 44 Sur 0 -- -- 52
2019-04-17 16:00:00 13.4 27 Sur 50 Sur 0 -- -- 50
2019-04-17 15:00:00 13.6 19 Sur 57 Sur 0 -- -- 51
2019-04-17 14:00:00 12.9 33 Sur 59 Sur 0 -- -- 52
2019-04-17 13:00:00 12.3 27 Sur 54 Sur 0 -- -- 53
2019-04-17 12:00:00 12.5 28 Sur 63 Sur 0 -- -- 53
2019-04-17 11:00:00 11.3 21 Sur 42 Sur 0 -- -- 58
2019-04-17 10:00:00 10.5 27 Sur 49 Sur 0 -- -- 57
2019-04-17 09:00:00 10.3 25 Sur 55 Sur 0 -- -- 56
2019-04-17 08:00:00 10.5 30 Sur 54 Sur 0 -- -- 53
2019-04-17 07:00:00 10.9 23 Sur 60 Sur 0 -- -- 51
2019-04-17 06:00:00 11 24 Sudoeste 46 Sudoeste 0 -- -- 50
2019-04-17 05:00:00 11.2 24 Sur 55 Sur 0 -- -- 49
2019-04-17 04:00:00 11.4 17 Sur 52 Sur 0 -- -- 47
2019-04-17 03:00:00 11.4 14 Sur 39 Sur 0 -- -- 47
2019-04-17 02:00:00 11.1 11 Sur 36 Sur 0 -- -- 47
2019-04-17 01:00:00 11.8 18 Sur 35 Sur 0 -- -- 45
2019-04-17 00:00:00 11.7 15 Sur 32 Sur 0 -- -- 45
2019-04-16 23:00:00 11.9 9 Sudoeste 24 Sudoeste 0 -- -- 46
2019-04-16 22:00:00 12.5 11 Sudoeste 27 Sudoeste 0 -- -- 44
2019-04-16 21:00:00 13.3 12 Sudoeste 21 Sudoeste 0 -- -- 43
2019-04-16 20:00:00 13.8 10 Sur 24 Sudeste 0 -- -- 43
2019-04-16 19:00:00 14.7 13 Sur 31 Sur 0 -- -- 42
2019-04-16 18:00:00 15.8 17 Sur 35 Sur 0 -- -- 36
2019-04-16 17:00:00 15 17 Sur 36 Sur 0 -- -- 36
2019-04-16 16:00:00 14.3 18 Sur 35 Sur 0 -- -- 41
2019-04-16 15:00:00 12.8 16 Sur 34 Sur 0 -- -- 43
2019-04-16 14:00:00 12.6 19 Sur 41 Sudeste 0 -- -- 53
2019-04-16 13:00:00 11.4 20 Sur 37 Sur 0 -- -- 54
2019-04-16 12:00:00 10.3 22 Sur 40 Sudeste 0 -- -- 52
2019-04-16 11:00:00 9.2 17 Sur 35 Sur 0 -- -- 59
2019-04-16 10:00:00 7.6 16 Sur 50 Sur 0 -- -- 64
2019-04-16 09:00:00 5.5 15 Sur 39 Sur 0 -- -- 72
2019-04-16 08:00:00 4.3 4 Sudeste 28 Sur 0 -- -- 75
2019-04-16 07:00:00 3.5 6 Sudoeste 20 Oeste 0 -- -- 81
2019-04-16 06:00:00 3.9 11 Oeste 18 Oeste 0 -- -- 76
2019-04-16 05:00:00 4 7 Oeste 15 Oeste 0 -- -- 78
2019-04-16 04:00:00 3.6 0 Calma 15 Oeste 0 -- -- 82
2019-04-16 03:00:00 4 14 Oeste 21 Oeste 0 -- -- 86
2019-04-16 02:00:00 3 5 Oeste 13 Noroeste 0 -- -- 88
2019-04-16 01:00:00 3.7 7 Noroeste 11 Noroeste 0 -- -- 88
2019-04-16 00:00:00 5.3 0 Calma 6 Este 0 -- -- 87
2019-04-15 23:00:00 5.9 4 Nordeste 9 Nordeste 0 -- -- 85
2019-04-15 22:00:00 5.9 5 Nordeste 12 Norte 0 -- -- 81
2019-04-15 21:00:00 6.8 4 Nordeste 24 Norte 0.2 -- -- 78
2019-04-15 20:00:00 7.6 6 Nordeste 30 Norte 0 -- -- 77
2019-04-15 19:00:00 7.6 6 Nordeste 31 Norte 1.4 -- -- 85
2019-04-15 18:00:00 10 11 Sudoeste 36 Oeste 0 -- -- 67
2019-04-15 17:00:00 9.3 10 Sudoeste 28 Sudeste 0 -- -- 75
2019-04-15 16:00:00 8.2 5 Sudoeste 22 Sur 0.2 -- -- 81
2019-04-15 15:00:00 7.3 8 Oeste 31 Sudoeste 1.2 -- -- 83
2019-04-15 14:00:00 9 10 Oeste 33 Noroeste 0.8 -- -- 80
2019-04-15 13:00:00 9.8 15 Oeste 41 Oeste 0.2 -- -- 77
2019-04-15 12:00:00 11.8 8 Oeste 24 Sudoeste 0 -- -- 74
2019-04-15 11:00:00 10.9 10 Oeste 34 Sudoeste 0 -- -- 79
2019-04-15 10:00:00 10.8 15 Sudoeste 39 Sur 10.8 -- -- 86
2019-04-15 09:00:00 10.6 11 Sudoeste 36 Sur 6 -- -- 87
2019-04-15 08:00:00 12 17 Sur 39 Sur 0 -- -- 75
2019-04-15 07:00:00 12.5 20 Sur 43 Sur 0 -- -- 71
2019-04-15 06:00:00 12.8 15 Sur 31 Sur 0 -- -- 70
2019-04-15 05:00:00 12.9 13 Sur 29 Sur 0 -- -- 71
2019-04-15 04:00:00 13.3 19 Sur 33 Sudoeste 0 -- -- 70
2019-04-15 03:00:00 13 10 Sur 27 Sur 0 -- -- 72
2019-04-15 02:00:00 12.9 9 Sur 26 Sur 0 -- -- 71
2019-04-15 01:00:00 13 7 Sur 36 Sur 0 -- -- 70
2019-04-15 00:00:00 12.8 5 Sudoeste 18 Sudoeste 0 -- -- 70
2019-04-14 23:00:00 12.7 4 Oeste 16 Oeste 0 -- -- 73
2019-04-14 22:00:00 13 4 Oeste 15 Oeste 0 -- -- 73
2019-04-14 21:00:00 13.8 6 Oeste 18 Oeste 0 -- -- 74
2019-04-14 20:00:00 15.7 3 Oeste 11 Noroeste 0 -- -- 67
2019-04-14 19:00:00 17.1 4 Norte 9 Norte 0 -- -- 61
2019-04-14 18:00:00 18 3 Nordeste 10 Sur 0 -- -- 56
2019-04-14 17:00:00 17.2 4 Sudeste 10 Sur 0 -- -- 60
2019-04-14 16:00:00 16.1 3 Sur 10 Sudeste 0 -- -- 61
2019-04-14 15:00:00 15.3 6 Sudoeste 15 Sudoeste 0 -- -- 64
2019-04-14 14:00:00 14.2 5 Oeste 17 Sudoeste 0.2 -- -- 67
2019-04-14 13:00:00 13.9 7 Sur 21 Sur 0 -- -- 70
2019-04-14 12:00:00 13.2 6 Sudoeste 17 Sudoeste 0 -- -- 74
2019-04-14 11:00:00 13.2 5 Sudoeste 16 Sudoeste 0 -- -- 77
2019-04-14 10:00:00 11.8 4 Sudoeste 13 Sudeste 0 -- -- 85
2019-04-14 09:00:00 10.4 0 Calma 10 Sur 0 -- -- 92
2019-04-14 08:00:00 9.9 4 Sur 6 Sur 0 -- -- 93
2019-04-14 07:00:00 9.7 2 Sudeste 5 Sudeste 0.2 -- -- 92
2019-04-14 06:00:00 9.9 0 Calma 9 Sur 0 -- -- 90
2019-04-14 05:00:00 10 2 Sudoeste 7 Sur 0 -- -- 87
2019-04-14 04:00:00 10.2 4 Sur 15 Sur 0 -- -- 86
2019-04-14 03:00:00 10.3 4 Sudoeste 13 Sur 0 -- -- 84
2019-04-14 02:00:00 10.3 5 Sur 11 Sudoeste 0 -- -- 86
2019-04-14 01:00:00 10.3 2 Sudeste 7 Norte 0 -- -- 85
2019-04-14 00:00:00 10.4 3 Sudeste 12 Sudoeste 0 -- -- 84
2019-04-13 23:00:00 10.3 5 Sudoeste 11 Sudoeste 0 -- -- 83
2019-04-13 22:00:00 11.5 2 Nordeste 18 Oeste 0 -- -- 70
2019-04-13 21:00:00 12.3 2 Noroeste 17 Nordeste 0 -- -- 64
2019-04-13 20:00:00 13.1 10 Norte 23 Norte 0 -- -- 59
2019-04-13 19:00:00 14.6 7 Norte 18 Nordeste 0 -- -- 52
2019-04-13 18:00:00 14.7 9 Norte 21 Nordeste 0 -- -- 50
2019-04-13 17:00:00 17.1 5 Oeste 17 Sur 0 -- -- 44
2019-04-13 16:00:00 16 6 Oeste 22 Sur 0 -- -- 39
2019-04-13 15:00:00 16.4 6 Oeste 21 Oeste 0 -- -- 37
2019-04-13 14:00:00 16 9 Noroeste 26 Sudoeste 0 -- -- 32
2019-04-13 13:00:00 15.9 12 Sur 27 Sur 0 -- -- 40
2019-04-13 12:00:00 14.2 13 Sur 23 Sur 0 -- -- 42
2019-04-13 11:00:00 12.4 13 Sur 27 Sur 0 -- -- 48
2019-04-13 10:00:00 11.7 12 Sur 27 Sur 0 -- -- 49
2019-04-13 09:00:00 9.9 4 Este 12 Sur 0 -- -- 51
2019-04-13 08:00:00 7.9 6 Sur 12 Sudoeste 0 -- -- 59
2019-04-13 07:00:00 7.6 4 Noroeste 7 Noroeste 0 -- -- 65
2019-04-13 06:00:00 7.7 2 Noroeste 16 Oeste 0 -- -- 66
2019-04-13 05:00:00 8 3 Noroeste 5 Noroeste 0 -- -- 68
2019-04-13 04:00:00 7.4 3 Noroeste 5 Norte 0 -- -- 71
2019-04-13 03:00:00 7.9 0 Calma 12 Norte 0 -- -- 70
2019-04-13 02:00:00 8.4 4 Norte 7 Norte 0 -- -- 66
2019-04-13 01:00:00 7.7 0 Calma 10 Norte 0 -- -- 69
2019-04-13 00:00:00 8.1 5 Norte 17 Norte 0 -- -- 66
2019-04-12 23:00:00 8.7 7 Noroeste 15 Norte 0 -- -- 56
2019-04-12 22:00:00 10.4 8 Norte 13 Norte 0 -- -- 46
2019-04-12 21:00:00 10.4 8 Norte 14 Norte 0 -- -- 44
2019-04-12 20:00:00 11.9 9 Norte 18 Noroeste 0 -- -- 44
2019-04-12 19:00:00 15.5 5 Norte 18 Noroeste 0 -- -- 38
2019-04-12 18:00:00 15.9 7 Nordeste 19 Nordeste 0 -- -- 43
2019-04-12 17:00:00 15.7 7 Nordeste 17 Nordeste 0 -- -- 47
2019-04-12 16:00:00 14.2 9 Nordeste 18 Nordeste 0 -- -- 52
2019-04-12 15:00:00 13.2 9 Nordeste 20 Nordeste 0 -- -- 55
2019-04-12 14:00:00 13.5 8 Sur 19 Sur 0 -- -- 43
2019-04-12 13:00:00 12.1 12 Sur 21 Sudoeste 0 -- -- 50
2019-04-12 12:00:00 10.6 13 Sur 21 Sur 0 -- -- 60
2019-04-12 11:00:00 9.4 10 Sur 17 Sur 0 -- -- 66
2019-04-12 10:00:00 8.8 3 Sur 7 Sur 0 -- -- 64
2019-04-12 09:00:00 6.3 2 Sudeste 5 Sudeste 0 -- -- 71
2019-04-12 08:00:00 3.6 0 Calma 5 Noroeste 0 -- -- 79
2019-04-12 07:00:00 3.8 2 Sudeste 7 Sur 0 -- -- 77
2019-04-12 06:00:00 4.1 2 Sudeste 9 Sur 0 -- -- 76
2019-04-12 05:00:00 4.8 0 Calma 5 Norte 0 -- -- 71
2019-04-12 04:00:00 3.6 2 Noroeste 4 Noroeste 0 -- -- 79
2019-04-12 03:00:00 2.8 0 Calma 3 Nordeste 0 -- -- 90
2019-04-12 02:00:00 3.2 2 Nordeste 4 Norte 0 -- -- 89
2019-04-12 01:00:00 3.1 2 Noroeste 3 Noroeste 0 -- -- 93
2019-04-12 00:00:00 3.5 0 Calma 14 Norte 0 -- -- 90
2019-04-11 23:00:00 3.9 7 Norte 14 Norte 0 -- -- 89
2019-04-11 22:00:00 4.7 7 Norte 15 Norte 0 -- -- 85
2019-04-11 21:00:00 6 9 Norte 15 Noroeste 0 -- -- 74
2019-04-11 20:00:00 7.1 8 Norte 14 Nordeste 0 -- -- 71
2019-04-11 19:00:00 9.9 10 Nordeste 20 Nordeste 0 -- -- 61
2019-04-11 18:00:00 10.6 9 Nordeste 24 Nordeste 0 -- -- 58
2019-04-11 17:00:00 8.5 6 Norte 19 Este 0 -- -- 64
2019-04-11 16:00:00 8.3 6 Nordeste 18 Norte 0 -- -- 63
2019-04-11 15:00:00 9.6 8 Norte 27 Nordeste 0 -- -- 59
2019-04-11 14:00:00 9.6 8 Nordeste 22 Nordeste 0 -- -- 65
2019-04-11 13:00:00 8.7 7 Nordeste 14 Nordeste 0 -- -- 62
2019-04-11 12:00:00 6.1 3 Sudoeste 10 Sudeste 0 -- -- 92
2019-04-11 11:00:00 4 3 Sur 6 Sur 0 -- -- 93
2019-04-11 10:00:00 3.4 2 Noroeste 5 Este 0 -- -- 94
2019-04-11 09:00:00 0.4 0 Calma 6 Este 0 -- -- 96
2019-04-11 08:00:00 -0.1 5 Nordeste 10 Nordeste 0 -- -- 94
2019-04-11 07:00:00 0.6 0 Calma 8 Norte 0 -- -- 92
2019-04-11 06:00:00 1.1 0 Calma 5 Nordeste 0 -- -- 95
2019-04-11 05:00:00 1.4 0 Calma 3 Noroeste 0 -- -- 93
2019-04-11 04:00:00 2.3 4 Norte 8 Noroeste 0 -- -- 91
2019-04-11 03:00:00 3.1 5 Norte 10 Norte 0 -- -- 92
2019-04-11 02:00:00 3.4 7 Norte 16 Noroeste 0 -- -- 93
2019-04-11 01:00:00 3.9 5 Norte 9 Noroeste 0.2 -- -- 92
2019-04-11 00:00:00 4.1 4 Noroeste 13 Norte 0 -- -- 91
2019-04-10 23:00:00 4.1 6 Norte 14 Norte 0 -- -- 91
2019-04-10 22:00:00 4.6 6 Norte 12 Noroeste 0 -- -- 89
2019-04-10 21:00:00 4.6 6 Norte 15 Noroeste 0 -- -- 89
2019-04-10 20:00:00 5.3 6 Norte 17 Norte 0 -- -- 86
2019-04-10 19:00:00 5.7 8 Norte 25 Nordeste 0 -- -- 87
2019-04-10 18:00:00 6.7 9 Norte 28 Este 0.2 -- -- 86
2019-04-10 17:00:00 6.2 5 Noroeste 23 Nordeste 1.2 -- -- 87
2019-04-10 16:00:00 7 10 Norte 25 Nordeste 0.2 -- -- 89
2019-04-10 15:00:00 6.8 9 Norte 29 Nordeste 0.4 -- -- 86
2019-04-10 14:00:00 5.8 5 Norte 26 Norte 0.4 -- -- 91
2019-04-10 13:00:00 5.6 8 Norte 26 Nordeste 0.6 -- -- 94
2019-04-10 12:00:00 5.2 4 Nordeste 19 Nordeste 1.6 -- -- 91
2019-04-10 11:00:00 4.3 9 Norte 21 Nordeste 0.6 -- -- 92
2019-04-10 10:00:00 3.9 8 Norte 23 Norte 1.4 -- -- 93
2019-04-10 09:00:00 3.4 8 Nordeste 33 Norte 2.2 -- -- 93
2019-04-10 08:00:00 3 7 Nordeste 39 Norte 1.2 -- -- 92
2019-04-10 07:00:00 2.8 14 Norte 41 Norte 1 -- -- 91
2019-04-10 06:00:00 2.8 14 Norte 35 Norte 0.4 -- -- 91
2019-04-10 05:00:00 3 13 Norte 39 Norte 0 -- -- 89
2019-04-10 04:00:00 3 13 Nordeste 31 Nordeste 1.4 -- -- 90
2019-04-10 03:00:00 2.9 8 Norte 30 Norte 0.4 -- -- 91
2019-04-10 02:00:00 3 11 Nordeste 32 Norte 0.2 -- -- 89
2019-04-10 01:00:00 3.2 11 Norte 27 Nordeste 1.4 -- -- 90
2019-04-10 00:00:00 2.8 9 Norte 41 Norte 2.4 -- -- 90
2019-04-09 23:00:00 3.3 11 Norte 26 Nordeste 0.4 -- -- 90
2019-04-09 22:00:00 2.7 6 Norte 29 Norte 3.6 -- -- 90
2019-04-09 21:00:00 3.4 8 Norte 26 Norte 2.4 -- -- 88
2019-04-09 20:00:00 4.6 8 Sudeste 27 Sudoeste 0.2 -- -- 77
2019-04-09 19:00:00 4.7 7 Nordeste 31 Sudoeste 0.2 -- -- 83
2019-04-09 18:00:00 4.7 10 Sudoeste 30 Sur 0.6 -- -- 83
2019-04-09 17:00:00 6.2 10 Sudoeste 30 Sudoeste 0.2 -- -- 76
2019-04-09 16:00:00 3.8 6 Nordeste 22 Noroeste 1.2 -- -- 88
2019-04-09 15:00:00 5.2 14 Sudoeste 36 Noroeste 0 -- -- 79
2019-04-09 14:00:00 5.6 8 Oeste 25 Noroeste 0.2 -- -- 76
2019-04-09 13:00:00 4.9 9 Norte 21 Norte 0 -- -- 81
2019-04-09 12:00:00 2.5 6 Nordeste 19 Oeste 1 -- -- 87
2019-04-09 11:00:00 3.2 8 Sur 14 Sur 0.2 -- -- 88
2019-04-09 10:00:00 1.7 4 Sur 19 Sudoeste 0.4 -- -- 92
2019-04-09 09:00:00 1.3 7 Sudoeste 20 Sudoeste 1.4 -- -- 89
2019-04-09 08:00:00 1.4 8 Oeste 14 Oeste 1.2 -- -- 89
2019-04-09 07:00:00 2.2 10 Sur 26 Sur 0.2 -- -- 87
2019-04-09 06:00:00 2.1 8 Sur 27 Sudoeste 0.2 -- -- 90
2019-04-09 05:00:00 2.4 12 Sudoeste 31 Sur 0.4 -- -- 88
2019-04-09 04:00:00 2.4 9 Sur 22 Sur 1 -- -- 88
2019-04-09 03:00:00 2.7 10 Sur 21 Sur 0 -- -- 90
2019-04-09 02:00:00 2.3 9 Sur 20 Sur 0.2 -- -- 89
2019-04-09 01:00:00 2.8 9 Sudoeste 26 Sur 1.2 -- -- 87
2019-04-09 00:00:00 3.9 10 Sudoeste 29 Sur 0.4 -- -- 80
2019-04-08 23:00:00 3.9 5 Sudoeste 20 Sudoeste 0 -- -- 81
2019-04-08 22:00:00 4.4 8 Sudoeste 18 Sur 0 -- -- 77
2019-04-08 21:00:00 4.1 6 Sudoeste 22 Sudoeste 0.4 -- -- 82
2019-04-08 20:00:00 5.9 8 Oeste 32 Sudoeste 0 -- -- 72
2019-04-08 19:00:00 7.1 14 Sudoeste 36 Sur 0.4 -- -- 68
2019-04-08 18:00:00 8.4 11 Sudoeste 32 Sur 0 -- -- 64
2019-04-08 17:00:00 5.2 15 Sudoeste 31 Sur 0.6 -- -- 78
2019-04-08 16:00:00 8.7 14 Sur 31 Oeste 0 -- -- 63
2019-04-08 15:00:00 7.7 12 Oeste 26 Sudoeste 0.2 -- -- 61
2019-04-08 14:00:00 6.1 11 Sudoeste 30 Sudoeste 0 -- -- 68
2019-04-08 13:00:00 7.2 13 Sudoeste 29 Sudoeste 0 -- -- 64
2019-04-08 12:00:00 5.8 9 Sudoeste 23 Sur 0 -- -- 72
2019-04-08 11:00:00 5.8 5 Sudoeste 18 Sudoeste 0.2 -- -- 80
2019-04-08 10:00:00 3.7 8 Sur 18 Sur 0 -- -- 83
2019-04-08 09:00:00 3.6 6 Sur 20 Oeste 0 -- -- 81
2019-04-08 08:00:00 3.3 7 Sudoeste 19 Norte 0.6 -- -- 84
2019-04-08 07:00:00 3.7 6 Nordeste 16 Nordeste 0.6 -- -- 89
2019-04-08 06:00:00 4.1 6 Nordeste 24 Norte 1.8 -- -- 89
2019-04-08 05:00:00 4.5 5 Oeste 18 Oeste 1.6 -- -- 89
2019-04-08 04:00:00 5.2 8 Sudoeste 24 Oeste 0.2 -- -- 84
2019-04-08 03:00:00 4.1 5 Sudoeste 12 Sudeste 0 -- -- 94
2019-04-08 02:00:00 3.9 6 Sur 19 Sur 0.8 -- -- 91
2019-04-08 01:00:00 3.8 6 Sur 40 Sudoeste 0.6 -- -- 89
2019-04-08 00:00:00 3.1 21 Oeste 45 Sudoeste 0.8 -- -- 90
2019-04-07 23:00:00 3.4 9 Sudoeste 27 Oeste 1 -- -- 89
2019-04-07 22:00:00 3 8 Sudoeste 27 Oeste 1.4 -- -- 89
2019-04-07 21:00:00 2.5 16 Sudoeste 45 Sur 0.8 -- -- 90
2019-04-07 20:00:00 2.1 21 Sur 49 Sur 1 -- -- 90
2019-04-07 19:00:00 2.2 22 Sur 42 Sur 0.8 -- -- 90
2019-04-07 18:00:00 2.5 18 Sur 43 Oeste 1.2 -- -- 90
2019-04-07 17:00:00 3.2 13 Sur 28 Sur 1 -- -- 87
2019-04-07 16:00:00 4.3 12 Sudoeste 30 Sudoeste 0.2 -- -- 81
2019-04-07 15:00:00 5.9 17 Sur 35 Sudeste 0 -- -- 65
2019-04-07 14:00:00 6.5 15 Sur 34 Sur 0 -- -- 62
2019-04-07 13:00:00 5.7 13 Sur 26 Sur 0 -- -- 67
2019-04-07 12:00:00 4.2 11 Sur 24 Sur 0 -- -- 74
2019-04-07 11:00:00 4.8 10 Sudoeste 19 Sudoeste 0 -- -- 70
2019-04-07 10:00:00 4.4 5 Sudoeste 12 Oeste 0 -- -- 72
2019-04-07 09:00:00 0.8 3 Noroeste 10 Oeste 0 -- -- 84
2019-04-07 08:00:00 0.5 3 Nordeste 6 Oeste 0 -- -- 88
2019-04-07 07:00:00 0.1 0 Calma 14 Sur 0 -- -- 88
2019-04-07 06:00:00 0.5 4 Norte 26 Norte 0 -- -- 88
2019-04-07 05:00:00 0.4 11 Norte 20 Norte 0 -- -- 89
2019-04-07 04:00:00 0.5 8 Norte 22 Norte 0 -- -- 92
2019-04-07 03:00:00 0.7 6 Nordeste 18 Nordeste 0 -- -- 90
2019-04-07 02:00:00 0.7 6 Nordeste 21 Norte 0.2 -- -- 91
2019-04-07 01:00:00 0.6 8 Nordeste 24 Norte 0 -- -- 91
2019-04-07 00:00:00 0.4 5 Nordeste 24 Nordeste 0 -- -- 93
2019-04-06 23:00:00 0.4 8 Nordeste 19 Nordeste 1 -- -- 92
2019-04-06 22:00:00 0.8 6 Nordeste 15 Nordeste 0.6 -- -- 91
2019-04-06 21:00:00 1.1 8 Norte 24 Nordeste 0 -- -- 90
2019-04-06 20:00:00 1.6 8 Este 26 Norte 0.4 -- -- 88
2019-04-06 19:00:00 2.5 5 Sudeste 33 Noroeste 0.8 -- -- 84
2019-04-06 18:00:00 0.7 10 Norte 30 Norte 2.6 -- -- 93
2019-04-06 17:00:00 0.8 10 Nordeste 27 Norte 2.2 -- -- 93
2019-04-06 16:00:00 0.6 3 Sudeste 31 Norte 3.2 -- -- 92
2019-04-06 15:00:00 1.7 7 Nordeste 18 Nordeste 1.6 -- -- 87
2019-04-06 14:00:00 0.7 7 Nordeste 23 Nordeste 3 -- -- 90
2019-04-06 13:00:00 2.2 5 Sudeste 24 Sur 0.6 -- -- 86
2019-04-06 12:00:00 1.9 6 Sudoeste 18 Norte 0.6 -- -- 85
2019-04-06 11:00:00 1.5 8 Oeste 20 Oeste 0.6 -- -- 86
2019-04-06 10:00:00 0.9 5 Sur 13 Sudeste 0.8 -- -- 92
2019-04-06 09:00:00 -0.1 8 Sur 14 Sur 0.8 -- -- 94
2019-04-06 08:00:00 -0.3 7 Sur 17 Sur 0.4 -- -- 94
2019-04-06 07:00:00 -0.2 13 Sur 21 Sur 0.2 -- -- 93
2019-04-06 06:00:00 0 8 Sur 21 Sudeste 0.2 -- -- 92
2019-04-06 05:00:00 0 9 Sur 24 Sudoeste 0.6 -- -- 93
2019-04-06 04:00:00 0.1 6 Sudoeste 17 Oeste 1 -- -- 93
2019-04-06 03:00:00 0.1 5 Sur 21 Sudoeste 1.4 -- -- 91
2019-04-06 02:00:00 0.8 4 Sur 11 Norte 0.6 -- -- 90
2019-04-06 01:00:00 1.7 6 Sudoeste 23 Sudoeste 0 -- -- 81
2019-04-06 00:00:00 1.6 8 Sudoeste 18 Sur 0 -- -- 83
2019-04-05 23:00:00 1.4 3 Este 14 Norte 0 -- -- 89
2019-04-05 22:00:00 1.3 4 Sudeste 10 Sur 0.4 -- -- 89
2019-04-05 21:00:00 2 5 Nordeste 23 Norte 0 -- -- 82
2019-04-05 20:00:00 2.3 8 Norte 21 Noroeste 0.2 -- -- 83
2019-04-05 19:00:00 2.8 4 Oeste 25 Oeste 0.2 -- -- 80
2019-04-05 18:00:00 3.9 4 Sur 28 Oeste 0 -- -- 72
2019-04-05 17:00:00 3.6 10 Oeste 24 Oeste 0.2 -- -- 74
2019-04-05 16:00:00 3.8 10 Sur 35 Sudoeste 0.2 -- -- 73
2019-04-05 15:00:00 4.7 12 Oeste 38 Sudoeste 0 -- -- 61
2019-04-05 14:00:00 4.5 14 Sudoeste 32 Sudoeste 0 -- -- 63
2019-04-05 13:00:00 4.2 15 Sur 31 Sur 0 -- -- 64
2019-04-05 12:00:00 2.7 13 Sudoeste 31 Sudoeste 0 -- -- 75
2019-04-05 11:00:00 1.1 6 Norte 26 Sur 0 -- -- 76
2019-04-05 10:00:00 1 10 Sudoeste 23 Sudoeste 0.2 -- -- 80
2019-04-05 09:00:00 -0.2 5 Sur 17 Sur 0.2 -- -- 89
2019-04-05 08:00:00 -0.3 4 Sudoeste 11 Sudoeste 0 -- -- 91
2019-04-05 07:00:00 0 3 Sur 12 Sudoeste 0.4 -- -- 92
2019-04-05 06:00:00 0 6 Oeste 14 Oeste 0.4 -- -- 93
2019-04-05 05:00:00 0.2 4 Sudoeste 13 Sudoeste 0.2 -- -- 90
2019-04-05 04:00:00 0.5 9 Oeste 14 Sudoeste 0 -- -- 87
2019-04-05 03:00:00 0.7 5 Noroeste 10 Noroeste 0.6 -- -- 88
2019-04-05 02:00:00 0.5 4 Sur 12 Sur 0.2 -- -- 93
2019-04-05 01:00:00 0.2 6 Sur 14 Sudoeste 0.4 -- -- 94
2019-04-05 00:00:00 0 6 Sur 21 Sur 1 -- -- 94
2019-04-04 23:00:00 0.4 7 Sur 25 Sur 0.8 -- -- 93
2019-04-04 22:00:00 1 15 Sur 33 Sur 0.4 -- -- 92
2019-04-04 21:00:00 1.1 13 Sur 29 Sur 0.2 -- -- 92
2019-04-04 20:00:00 1.5 14 Sur 27 Sur 0.4 -- -- 91
2019-04-04 19:00:00 2.1 17 Sur 35 Sur 0.4 -- -- 88
2019-04-04 18:00:00 2.4 14 Sur 33 Sur 0.4 -- -- 87
2019-04-04 17:00:00 2.7 17 Sur 34 Sur 0.2 -- -- 86
2019-04-04 16:00:00 3.2 10 Sudoeste 30 Sur 0 -- -- 81
2019-04-04 15:00:00 3.3 8 Sudoeste 31 Noroeste 0 -- -- 76
2019-04-04 14:00:00 3.3 16 Sudoeste 35 Sudoeste 0 -- -- 75
2019-04-04 13:00:00 3.2 9 Sur 29 Sudoeste 0 -- -- 78
2019-04-04 12:00:00 3.5 11 Sudeste 25 Sur 0 -- -- 73
2019-04-04 11:00:00 1.1 8 Sudoeste 14 Oeste 0.2 -- -- 86
2019-04-04 10:00:00 0.1 3 Sur 18 Norte 0.2 -- -- 92
2019-04-04 09:00:00 -0.4 5 Norte 19 Norte 0 -- -- 91
2019-04-04 08:00:00 -0.8 10 Norte 24 Norte 0 -- -- 93
2019-04-04 07:00:00 -0.8 6 Norte 15 Norte 0.2 -- -- 93
2019-04-04 06:00:00 -0.8 3 Nordeste 12 Nordeste 0.2 -- -- 92
2019-04-04 05:00:00 -0.7 3 Norte 15 Nordeste 0 -- -- 90
2019-04-04 04:00:00 -0.6 5 Nordeste 21 Nordeste 0 -- -- 91
2019-04-04 03:00:00 -0.7 4 Noroeste 12 Noroeste 0 -- -- 91
2019-04-04 02:00:00 -0.6 3 Norte 12 Nordeste 0 -- -- 90
2019-04-04 01:00:00 -0.5 4 Norte 14 Noroeste 0 -- -- 88
2019-04-04 00:00:00 -0.6 2 Noroeste 21 Norte 0 -- -- 90
2019-04-03 23:00:00 -0.4 7 Norte 24 Norte 0.4 -- -- 90
2019-04-03 22:00:00 -0.2 6 Norte 17 Norte 0 -- -- 89
2019-04-03 21:00:00 -0.1 4 Norte 19 Norte 0 -- -- 90
2019-04-03 20:00:00 0.2 3 Sudeste 16 Nordeste 1.6 -- -- 91
2019-04-03 19:00:00 1.3 3 Sudeste 24 Norte 0.4 -- -- 90
2019-04-03 18:00:00 1.4 7 Norte 23 Nordeste 1 -- -- 85
2019-04-03 17:00:00 1.7 7 Nordeste 18 Nordeste 0.6 -- -- 86
2019-04-03 16:00:00 1.7 9 Nordeste 24 Norte 0.6 -- -- 83
2019-04-03 15:00:00 1.1 10 Norte 31 Norte 0.4 -- -- 85
2019-04-03 14:00:00 1.6 4 Noroeste 17 Noroeste 1.2 -- -- 88
2019-04-03 13:00:00 0.4 8 Norte 22 Nordeste 1.8 -- -- 92
2019-04-03 12:00:00 0.5 5 Norte 18 Nordeste 0.8 -- -- 90
2019-04-03 11:00:00 1.1 5 Noroeste 18 Norte 0.2 -- -- 87
2019-04-03 10:00:00 0.3 4 Norte 17 Noroeste 0 -- -- 90
2019-04-03 09:00:00 0.1 5 Norte 19 Norte 0.4 -- -- 91
2019-04-03 08:00:00 0.4 8 Norte 27 Norte 0 -- -- 90
2019-04-03 07:00:00 0.5 5 Norte 18 Nordeste 0 -- -- 90
2019-04-03 06:00:00 1 5 Norte 16 Norte 0 -- -- 91
2019-04-03 05:00:00 1 4 Nordeste 13 Nordeste 0.2 -- -- 91
2019-04-03 04:00:00 1.6 3 Nordeste 8 Norte 0 -- -- 89
2019-04-03 03:00:00 1.8 3 Nordeste 15 Nordeste 0 -- -- 89
2019-04-03 02:00:00 2.2 5 Norte 18 Nordeste 0 -- -- 88
2019-04-03 01:00:00 2.7 7 Norte 18 Norte 0 -- -- 84
2019-04-03 00:00:00 3.8 4 Norte 18 Norte 0 -- -- 86
2019-04-02 23:00:00 4.1 6 Norte 14 Nordeste 0 -- -- 81
2019-04-02 22:00:00 4.6 5 Norte 23 Nordeste 0 -- -- 83
2019-04-02 21:00:00 5.5 7 Norte 17 Nordeste 0 -- -- 78
2019-04-02 20:00:00 6.6 8 Norte 19 Nordeste 0 -- -- 77
2019-04-02 19:00:00 8.3 7 Norte 24 Nordeste 0 -- -- 69
2019-04-02 18:00:00 9.5 12 Noroeste 24 Noroeste 0 -- -- 56
2019-04-02 17:00:00 10.5 8 Nordeste 27 Noroeste 0 -- -- 53
2019-04-02 16:00:00 10.9 10 Nordeste 22 Norte 0 -- -- 56
2019-04-02 15:00:00 11.1 8 Nordeste 25 Nordeste 0 -- -- 56
2019-04-02 14:00:00 9.8 9 Norte 21 Nordeste 0 -- -- 63
2019-04-02 13:00:00 8.7 8 Norte 21 Norte 0 -- -- 68
2019-04-02 12:00:00 8.4 10 Norte 18 Nordeste 0 -- -- 71
2019-04-02 11:00:00 5.7 6 Este 15 Nordeste 0 -- -- 79
2019-04-02 10:00:00 3.8 9 Nordeste 19 Norte 0 -- -- 92
2019-04-02 09:00:00 2.6 4 Sudeste 11 Norte 0 -- -- 89
2019-04-02 08:00:00 2.6 4 Noroeste 9 Norte 0 -- -- 80
2019-04-02 07:00:00 3.1 2 Norte 6 Nordeste 0 -- -- 78
2019-04-02 06:00:00 4.1 0 Calma 13 Norte 0 -- -- 73
2019-04-02 05:00:00 4 9 Norte 14 Norte 0 -- -- 75
2019-04-02 04:00:00 4.9 6 Norte 10 Norte 0 -- -- 70
2019-04-02 03:00:00 5 3 Norte 7 Noroeste 0 -- -- 69
2019-04-02 02:00:00 5.4 2 Noroeste 10 Norte 0 -- -- 68
2019-04-02 01:00:00 5.7 3 Noroeste 11 Norte 0 -- -- 66
2019-04-02 00:00:00 6.5 3 Nordeste 15 Norte 0 -- -- 60
2019-04-01 23:00:00 6.9 10 Norte 19 Norte 0 -- -- 62
2019-04-01 22:00:00 8.1 9 Norte 19 Norte 0 -- -- 60
2019-04-01 21:00:00 9.3 9 Norte 17 Norte 0 -- -- 56
2019-04-01 20:00:00 11 8 Norte 21 Nordeste 0 -- -- 52
2019-04-01 19:00:00 14.7 9 Norte 23 Norte 0 -- -- 38
2019-04-01 18:00:00 15.9 8 Norte 20 Nordeste 0 -- -- 31
2019-04-01 17:00:00 15.8 8 Nordeste 19 Nordeste 0 -- -- 28
2019-04-01 16:00:00 15.9 6 Sudeste 19 Noroeste 0 -- -- 26
2019-04-01 15:00:00 14.7 11 Nordeste 24 Nordeste 0 -- -- 30
2019-04-01 14:00:00 14.2 8 Norte 21 Nordeste 0 -- -- 42
2019-04-01 13:00:00 14.5 9 Nordeste 20 Nordeste 0 -- -- 39
2019-04-01 12:00:00 13.7 5 Sudeste 12 Sudeste 0 -- -- 42
2019-04-01 11:00:00 11.8 9 Sur 18 Sur 0 -- -- 52
2019-04-01 10:00:00 10 6 Sur 9 Sudeste 0 -- -- 57
2019-04-01 09:00:00 8.2 2 Sudeste 11 Sudoeste 0 -- -- 57
2019-04-01 08:00:00 7.7 3 Este 15 Sur 0 -- -- 59
2019-04-01 07:00:00 7.6 10 Sur 24 Sur 0 -- -- 61
2019-04-01 06:00:00 8.2 11 Sur 28 Sur 0 -- -- 57
2019-04-01 05:00:00 8.4 11 Sur 30 Sudeste 0 -- -- 56
2019-04-01 04:00:00 8.9 14 Sur 28 Sur 0 -- -- 53
2019-04-01 03:00:00 8.9 13 Sur 23 Sur 0 -- -- 51
2019-04-01 02:00:00 8.7 3 Sur 11 Sur 0 -- -- 50
2019-04-01 01:00:00 8.6 4 Norte 10 Norte 0 -- -- 53
2019-04-01 00:00:00 8.2 2 Nordeste 6 Noroeste 0 -- -- 56
2019-03-31 23:00:00 9 0 Calma 18 Norte 0 -- -- 51
2019-03-31 22:00:00 9.4 8 Norte 14 Norte 0 -- -- 51
2019-03-31 21:00:00 10.1 8 Norte 14 Noroeste 0 -- -- 49
2019-03-31 20:00:00 11.7 6 Norte 30 Sudoeste 0 -- -- 38
2019-03-31 19:00:00 12.1 13 Sur 39 Sudeste 0 -- -- 37
2019-03-31 18:00:00 15.2 3 Oeste 10 Sur 0 -- -- 25
2019-03-31 17:00:00 16.4 5 Sur 14 Sudoeste 0 -- -- 28
2019-03-31 16:00:00 13.6 8 Noroeste 22 Nordeste 0 -- -- 30
2019-03-31 15:00:00 15.4 9 Nordeste 26 Sur 0 -- -- 34
2019-03-31 14:00:00 15.1 12 Sur 30 Sur 0 -- -- 30
2019-03-31 13:00:00 15.3 12 Sur 27 Sur 0 -- -- 33
2019-03-31 12:00:00 14.1 12 Sur 27 Sur 0 -- -- 35
2019-03-31 11:00:00 12.4 9 Sur 31 Sur 0 -- -- 35
2019-03-31 10:00:00 10.1 10 Sur 32 Sur 0 -- -- 39
2019-03-31 09:00:00 8.8 14 Sur 33 Sur 0 -- -- 44
2019-03-31 08:00:00 8.3 12 Sur 28 Sur 0 -- -- 46
2019-03-31 07:00:00 8.7 10 Sur 29 Sur 0 -- -- 49
2019-03-31 06:00:00 9.5 15 Sur 28 Sur 0 -- -- 48
2019-03-31 05:00:00 9.6 14 Sur 22 Sur 0 -- -- 48
2019-03-31 03:00:00 9 2 Este 4 Sur 0 -- -- 52
2019-03-31 01:00:00 9.5 0 Calma 7 Noroeste 0 -- -- 49
2019-03-31 00:00:00 9.3 4 Norte 14 Norte 0 -- -- 51
2019-03-30 23:00:00 10.4 6 Nordeste 15 Oeste 0 -- -- 47
2019-03-30 22:00:00 9.2 5 Noroeste 10 Noroeste 0 -- -- 52
2019-03-30 21:00:00 9.9 3 Noroeste 15 Oeste 0 -- -- 48
2019-03-30 20:00:00 10.7 5 Noroeste 11 Oeste 0 -- -- 45
2019-03-30 19:00:00 12.3 2 Noroeste 10 Noroeste 0 -- -- 41
2019-03-30 18:00:00 12.5 2 Sudoeste 25 Oeste 0 -- -- 39
2019-03-30 17:00:00 12 11 Oeste 30 Oeste 0 -- -- 42
2019-03-30 16:00:00 12.5 5 Sur 23 Noroeste 0 -- -- 45
2019-03-30 15:00:00 12 8 Oeste 24 Noroeste 0 -- -- 42
2019-03-30 14:00:00 12.4 6 Oeste 39 Noroeste 0 -- -- 38
2019-03-30 13:00:00 13.9 7 Noroeste 22 Sur 0 -- -- 34
2019-03-30 12:00:00 14.5 14 Sur 25 Sur 0 -- -- 41
2019-03-30 11:00:00 13.7 15 Sur 27 Sur 0 -- -- 47
2019-03-30 10:00:00 13 10 Sur 20 Sur 0 -- -- 48
2019-03-30 09:00:00 11.8 6 Sur 11 Sur 0 -- -- 52
2019-03-30 08:00:00 8.4 0 Calma 6 Noroeste 0 -- -- 62
2019-03-30 07:00:00 8.4 0 Calma 5 Noroeste 0 -- -- 62
2019-03-30 06:00:00 8.9 5 Norte 9 Noroeste 0 -- -- 60
2019-03-30 05:00:00 9.4 4 Norte 8 Norte 0 -- -- 59
2019-03-30 04:00:00 8.8 4 Norte 6 Norte 0 -- -- 58
2019-03-30 03:00:00 8.5 0 Calma 9 Norte 0 -- -- 58
2019-03-30 02:00:00 9.2 5 Norte 9 Noroeste 0 -- -- 55
2019-03-30 01:00:00 9.3 8 Noroeste 14 Norte 0 -- -- 54
2019-03-30 00:00:00 9.2 10 Norte 13 Norte 0 -- -- 59
2019-03-29 23:00:00 9.1 10 Norte 14 Norte 0 -- -- 57
2019-03-29 22:00:00 10 11 Norte 18 Noroeste 0 -- -- 52
2019-03-29 21:00:00 10.9 12 Norte 18 Norte 0 -- -- 48
2019-03-29 20:00:00 12.4 9 Norte 12 Norte 0 -- -- 37
2019-03-29 19:00:00 13.6 5 Norte 19 Norte 0 -- -- 33
2019-03-29 18:00:00 16.6 8 Norte 20 Nordeste 0 -- -- 27
2019-03-29 17:00:00 17.1 5 Norte 25 Norte 0 -- -- 27
2019-03-29 16:00:00 16.7 8 Norte 22 Este 0 -- -- 27
2019-03-29 15:00:00 16.4 9 Norte 21 Este 0 -- -- 31
2019-03-29 14:00:00 16.7 9 Norte 19 Norte 0 -- -- 30
2019-03-29 13:00:00 16.3 6 Sur 17 Sur 0 -- -- 27
2019-03-29 12:00:00 15.2 12 Sur 25 Sur 0 -- -- 30
2019-03-29 11:00:00 13.8 14 Sur 30 Sur 0 -- -- 31
2019-03-29 10:00:00 12.1 19 Sur 37 Sur 0 -- -- 32
2019-03-29 09:00:00 11 17 Sur 35 Sur 0 -- -- 32
2019-03-29 08:00:00 9.3 19 Sur 35 Sur 0 -- -- 35
2019-03-29 07:00:00 9.2 19 Sur 31 Sur 0 -- -- 34
2019-03-29 06:00:00 9.4 15 Sur 33 Sur 0 -- -- 34
2019-03-29 05:00:00 9.9 17 Sur 32 Sur 0 -- -- 31
2019-03-29 04:00:00 10.3 21 Sur 32 Sur 0 -- -- 31
2019-03-29 03:00:00 10 7 Sudeste 28 Sur 0 -- -- 33
2019-03-29 02:00:00 10.6 15 Sur 31 Sudeste 0 -- -- 32
2019-03-29 01:00:00 10.9 14 Sur 31 Sur 0 -- -- 34
2019-03-29 00:00:00 11.1 14 Sur 28 Sur 0 -- -- 34
2019-03-28 23:00:00 10.6 7 Sur 16 Sudeste 0 -- -- 36
2019-03-28 22:00:00 10.1 3 Noroeste 6 Norte 0 -- -- 52
2019-03-28 21:00:00 10.3 0 Calma 12 Noroeste 0 -- -- 51
2019-03-28 20:00:00 11.2 0 Calma 14 Norte 0 -- -- 49
2019-03-28 19:00:00 13 8 Norte 19 Norte 0 -- -- 42
2019-03-28 18:00:00 17.3 7 Norte 19 Norte 0 -- -- 31
2019-03-28 17:00:00 18.7 6 Nordeste 21 Nordeste 0 -- -- 27
2019-03-28 16:00:00 18 13 Nordeste 22 Nordeste 0 -- -- 28
2019-03-28 15:00:00 18.3 11 Sur 25 Sur 0 -- -- 23
2019-03-28 14:00:00 17.2 9 Sur 28 Sur 0 -- -- 27
2019-03-28 13:00:00 16.6 13 Sur 27 Sur 0 -- -- 27
2019-03-28 12:00:00 16.4 6 Sur 20 Sudeste 0 -- -- 25
2019-03-28 11:00:00 15.2 8 Sur 13 Sur 0 -- -- 33
2019-03-28 10:00:00 13.9 3 Sur 13 Sur 0 -- -- 37
2019-03-28 09:00:00 11.7 7 Sur 12 Sur 0 -- -- 32
2019-03-28 08:00:00 9 7 Sur 17 Sur 0 -- -- 32
2019-03-28 07:00:00 8 3 Sur 8 Sur 0 -- -- 32
2019-03-28 06:00:00 7.1 0 Calma 8 Oeste 0 -- -- 34
2019-03-28 05:00:00 7.6 2 Norte 9 Sudeste 0 -- -- 34
2019-03-28 04:00:00 9.2 5 Noroeste 9 Noroeste 0 -- -- 29
2019-03-28 03:00:00 6.1 3 Noroeste 6 Nordeste 0 -- -- 56
2019-03-28 02:00:00 7.9 0 Calma 5 Noroeste 0 -- -- 38
2019-03-28 01:00:00 8.2 4 Noroeste 7 Noroeste 0 -- -- 37
2019-03-28 00:00:00 7.1 0 Calma 4 Norte 0 -- -- 59
2019-03-27 23:00:00 7.6 0 Calma 5 Noroeste 0 -- -- 56
2019-03-27 22:00:00 8.5 0 Calma 5 Noroeste 0 -- -- 52
2019-03-27 21:00:00 9.6 2 Noroeste 13 Noroeste 0 -- -- 49
2019-03-27 20:00:00 11.1 9 Norte 19 Norte 0 -- -- 45
2019-03-27 19:00:00 12.6 10 Norte 20 Norte 0 -- -- 39
2019-03-27 18:00:00 15.9 10 Norte 21 Nordeste 0 -- -- 32
2019-03-27 17:00:00 17.8 9 Norte 19 Norte 0 -- -- 27
2019-03-27 16:00:00 18.1 9 Nordeste 24 Norte 0 -- -- 22
2019-03-27 15:00:00 17.1 10 Nordeste 25 Nordeste 0 -- -- 26
2019-03-27 14:00:00 16.9 11 Nordeste 20 Nordeste 0 -- -- 22
2019-03-27 13:00:00 16.3 8 Nordeste 33 Sur 0 -- -- 22
2019-03-27 12:00:00 15.6 19 Sur 38 Sur 0 -- -- 11
2019-03-27 11:00:00 14.3 17 Sur 32 Sur 0 -- -- 8
2019-03-27 10:00:00 12.6 18 Sur 31 Sur 0 -- -- 7
2019-03-27 09:00:00 11.1 12 Sur 25 Sur 0 -- -- 8
2019-03-27 08:00:00 8.8 14 Sudoeste 31 Sur 0 -- -- 6
2019-03-27 07:00:00 7.9 13 Sur 29 Sur 0 -- -- 6
2019-03-27 06:00:00 7.6 10 Sur 25 Sur 0 -- -- 7
2019-03-27 05:00:00 7.5 9 Sudoeste 22 Sudoeste 0 -- -- 8
2019-03-27 04:00:00 7.8 17 Sudoeste 30 Sudoeste 0 -- -- 9
2019-03-27 03:00:00 7.4 12 Oeste 24 Sudoeste 0 -- -- 11
2019-03-27 02:00:00 7.8 9 Sudoeste 35 Sur 0 -- -- 14
2019-03-27 01:00:00 7.8 13 Sur 36 Sur 0 -- -- 16
2019-03-27 00:00:00 8.1 17 Sur 36 Sur 0 -- -- 16
2019-03-26 23:00:00 8.9 17 Sur 29 Sur 0 -- -- 17
2019-03-26 22:00:00 9.2 11 Sur 25 Sur 0 -- -- 16
2019-03-26 21:00:00 10.7 12 Sudeste 24 Sur 0 -- -- 13
2019-03-26 20:00:00 12.3 9 Sudeste 33 Sudoeste 0 -- -- 10
2019-03-26 19:00:00 13.6 14 Sur 30 Sur 0 -- -- 11
2019-03-26 18:00:00 16.8 16 Sur 45 Sur 0 -- -- 9
2019-03-26 17:00:00 17.3 24 Sur 42 Sur 0 -- -- 9
2019-03-26 16:00:00 17.4 22 Sur 47 Sur 0 -- -- 10
2019-03-26 15:00:00 17 23 Sur 43 Sur 0 -- -- 11
2019-03-26 14:00:00 15.9 20 Sur 44 Sudeste 0 -- -- 19
2019-03-26 13:00:00 14.9 23 Sur 42 Sur 0 -- -- 16
2019-03-26 12:00:00 13.7 20 Sur 41 Sur 0 -- -- 20
2019-03-26 11:00:00 11.8 18 Sur 35 Sur 0 -- -- 26
2019-03-26 10:00:00 9.5 16 Sur 26 Sur 0 -- -- 38
2019-03-26 09:00:00 7.6 5 Sur 12 Sur 0 -- -- 45
2019-03-26 08:00:00 4.5 2 Oeste 14 Oeste 0 -- -- 46
2019-03-26 07:00:00 2.8 3 Noroeste 9 Norte 0 -- -- 58
2019-03-26 06:00:00 0.8 3 Oeste 8 Noroeste 0 -- -- 87
2019-03-26 05:00:00 1.4 2 Sur 7 Sur 0 -- -- 86
2019-03-26 04:00:00 2.1 2 Sur 10 Este 0 -- -- 85
2019-03-26 03:00:00 3.2 3 Noroeste 8 Noroeste 0 -- -- 79
2019-03-26 02:00:00 3.3 0 Calma 6 Norte 0 -- -- 85
2019-03-26 01:00:00 3.8 2 Nordeste 8 Nordeste 0 -- -- 79
2019-03-26 00:00:00 4.4 2 Noroeste 8 Noroeste 0 -- -- 83
2019-03-25 23:00:00 5.1 2 Norte 6 Norte 0 -- -- 82
2019-03-25 22:00:00 5.7 0 Calma 5 Sudeste 0 -- -- 80
2019-03-25 21:00:00 6.7 3 Noroeste 6 Noroeste 0 -- -- 76
2019-03-25 20:00:00 8 0 Calma 25 Norte 0 -- -- 71
2019-03-25 19:00:00 9.5 10 Norte 23 Noroeste 0 -- -- 66
2019-03-25 18:00:00 13.4 10 Norte 23 Norte 0 -- -- 52
2019-03-25 17:00:00 15.2 10 Norte 25 Nordeste 0 -- -- 46
2019-03-25 16:00:00 15.3 10 Norte 25 Nordeste 0 -- -- 46
2019-03-25 15:00:00 14.4 10 Norte 25 Nordeste 0 -- -- 47
2019-03-25 14:00:00 13.9 9 Nordeste 22 Nordeste 0 -- -- 51
2019-03-25 13:00:00 13.4 6 Este 19 Este 0 -- -- 55
2019-03-25 12:00:00 12.5 5 Este 13 Nordeste 0 -- -- 58
2019-03-25 11:00:00 11.2 5 Sudeste 11 Este 0 -- -- 61
2019-03-25 10:00:00 9.6 4 Sur 8 Sudoeste 0 -- -- 65
2019-03-25 09:00:00 7.6 2 Sur 4 Sur 0 -- -- 69
2019-03-25 08:00:00 4.2 2 Este 5 Nordeste 0 -- -- 78
2019-03-25 07:00:00 3.6 0 Calma 5 Nordeste 0 -- -- 81
2019-03-25 06:00:00 4.6 0 Calma 5 Nordeste 0 -- -- 78
2019-03-25 05:00:00 5.3 0 Calma 6 Nordeste 0 -- -- 74
2019-03-25 04:00:00 5.2 0 Calma 4 Norte 0 -- -- 77
2019-03-25 03:00:00 6 0 Calma 3 Sudeste 0 -- -- 74
2019-03-25 02:00:00 7.1 0 Calma 9 Nordeste 0 -- -- 65
2019-03-25 01:00:00 6.1 2 Norte 7 Norte 0 -- -- 73
2019-03-25 00:00:00 6.3 0 Calma 5 Noroeste 0 -- -- 75
2019-03-24 23:00:00 6.7 0 Calma 4 Noroeste 0 -- -- 75
2019-03-24 22:00:00 8.1 2 Sudoeste 8 Noroeste 0 -- -- 70
2019-03-24 21:00:00 8.8 7 Noroeste 21 Noroeste 0 -- -- 67
2019-03-24 20:00:00 10.3 11 Norte 23 Noroeste 0 -- -- 66
2019-03-24 19:00:00 12.7 12 Norte 20 Norte 0 -- -- 57
2019-03-24 18:00:00 16.9 8 Norte 25 Este 0 -- -- 36
2019-03-24 17:00:00 17.3 12 Norte 24 Nordeste 0 -- -- 33
2019-03-24 16:00:00 17.3 10 Norte 30 Nordeste 0 -- -- 36
2019-03-24 15:00:00 18.1 7 Nordeste 19 Nordeste 0 -- -- 31
2019-03-24 14:00:00 16 10 Norte 24 Nordeste 0 -- -- 39
2019-03-24 13:00:00 18.2 7 Nordeste 17 Sudeste 0 -- -- 32
2019-03-24 12:00:00 17.2 6 Sudeste 20 Sur 0 -- -- 32
2019-03-24 11:00:00 16.4 11 Sur 18 Sur 0 -- -- 35
2019-03-24 10:00:00 15.1 9 Sur 19 Sur 0 -- -- 37
2019-03-24 09:00:00 13.2 10 Sur 22 Sur 0 -- -- 38
2019-03-24 08:00:00 10.7 10 Sur 22 Sur 0 -- -- 42
2019-03-24 07:00:00 10.5 13 Sur 26 Sur 0 -- -- 41
2019-03-24 06:00:00 10.7 11 Sur 21 Sudoeste 0 -- -- 41
2019-03-24 05:00:00 10.9 12 Sur 26 Sur 0 -- -- 40
2019-03-24 04:00:00 10.9 11 Sur 19 Sur 0 -- -- 39
2019-03-24 03:00:00 10.2 2 Sudeste 6 Este 0 -- -- 39
2019-03-24 02:00:00 10.3 2 Este 8 Este 0 -- -- 39
2019-03-24 01:00:00 10.6 2 Noroeste 4 Noroeste 0 -- -- 38
2019-03-24 00:00:00 10.7 0 Calma 6 Noroeste 0 -- -- 39
2019-03-23 23:00:00 10 0 Calma 6 Nordeste 0 -- -- 41
2019-03-23 22:00:00 10.3 4 Noroeste 6 Norte 0 -- -- 48
2019-03-23 21:00:00 10.9 0 Calma 14 Noroeste 0 -- -- 47
2019-03-23 20:00:00 11.4 9 Norte 18 Norte 0 -- -- 47
2019-03-23 19:00:00 13.2 9 Norte 20 Noroeste 0 -- -- 42
2019-03-23 18:00:00 18.7 3 Oeste 14 Sur 0 -- -- 24
2019-03-23 17:00:00 17.9 9 Sur 22 Sur 0 -- -- 24
2019-03-23 16:00:00 17.9 11 Sur 23 Sur 0 -- -- 25
2019-03-23 15:00:00 17.5 8 Sur 27 Sur 0 -- -- 26
2019-03-23 14:00:00 16.9 9 Sur 24 Sur 0 -- -- 24
2019-03-23 13:00:00 16.3 11 Sur 26 Sur 0 -- -- 27
2019-03-23 12:00:00 14.9 17 Sur 29 Sur 0 -- -- 28
2019-03-23 11:00:00 13.8 18 Sur 33 Sur 0 -- -- 33
2019-03-23 10:00:00 12.7 17 Sur 31 Sur 0 -- -- 36
2019-03-23 09:00:00 11.7 5 Sur 17 Sur 0 -- -- 36
2019-03-23 08:00:00 8.3 11 Sur 24 Sur 0 -- -- 41
2019-03-23 07:00:00 7.8 12 Sur 25 Sur 0 -- -- 42
2019-03-23 06:00:00 7.1 6 Sudoeste 23 Sur 0 -- -- 44
2019-03-23 05:00:00 7.9 10 Sur 20 Sur 0 -- -- 42
2019-03-23 04:00:00 8.2 9 Sudoeste 17 Sudoeste 0 -- -- 42
2019-03-23 03:00:00 8.7 8 Sudoeste 29 Sudoeste 0 -- -- 43
2019-03-23 02:00:00 8.8 11 Sudoeste 26 Oeste 0 -- -- 46
2019-03-23 01:00:00 8.5 3 Sur 12 Sur 0 -- -- 48
2019-03-23 00:00:00 8.2 3 Noroeste 6 Norte 0 -- -- 61
2019-03-22 23:00:00 8.1 2 Oeste 4 Noroeste 0 -- -- 61
2019-03-22 22:00:00 9.3 3 Norte 11 Noroeste 0 -- -- 55
2019-03-22 21:00:00 9.3 8 Norte 15 Norte 0 -- -- 57
2019-03-22 20:00:00 10.4 9 Norte 13 Norte 0 -- -- 43
2019-03-22 19:00:00 12 7 Norte 13 Norte 0 -- -- 42
2019-03-22 18:00:00 14.9 9 Nordeste 20 Norte 0 -- -- 36
2019-03-22 17:00:00 15.6 8 Norte 15 Nordeste 0 -- -- 35
2019-03-22 16:00:00 15.5 9 Norte 22 Nordeste 0 -- -- 33
2019-03-22 15:00:00 15.5 6 Este 19 Nordeste 0 -- -- 32
2019-03-22 14:00:00 15.1 5 Sur 17 Sur 0 -- -- 35
2019-03-22 13:00:00 14.4 7 Sur 19 Sur 0 -- -- 32
2019-03-22 12:00:00 12.7 10 Sur 23 Sudeste 0 -- -- 36
2019-03-22 11:00:00 11.4 13 Sur 19 Sudeste 0 -- -- 41
2019-03-22 10:00:00 11.1 6 Sur 12 Sur 0 -- -- 42
2019-03-22 09:00:00 9.3 2 Este 13 Nordeste 0 -- -- 47
2019-03-22 08:00:00 6 4 Noroeste 16 Oeste 0 -- -- 53
2019-03-22 07:00:00 5.8 6 Noroeste 21 Sur 0 -- -- 53
2019-03-22 06:00:00 5.3 9 Sudoeste 19 Sur 0 -- -- 56
2019-03-22 05:00:00 6.1 7 Oeste 27 Sudoeste 0 -- -- 52
2019-03-22 04:00:00 6 9 Oeste 25 Oeste 0 -- -- 51
2019-03-22 03:00:00 6.6 5 Oeste 28 Sur 0 -- -- 50
2019-03-22 02:00:00 7.5 12 Sudoeste 32 Sudeste 0 -- -- 46
2019-03-22 01:00:00 7.7 14 Sur 34 Sur 0 -- -- 45
2019-03-22 00:00:00 8.4 13 Sur 30 Sur 0 -- -- 41
2019-03-21 23:00:00 8.4 8 Sur 17 Sudoeste 0 -- -- 46
2019-03-21 22:00:00 7.1 0 Calma 9 Noroeste 0 -- -- 70
2019-03-21 21:00:00 8.4 4 Norte 12 Norte 0 -- -- 62
2019-03-21 20:00:00 8.9 7 Norte 16 Norte 0 -- -- 66
2019-03-21 19:00:00 10.9 9 Norte 18 Norte 0 -- -- 54
2019-03-21 18:00:00 14.8 7 Norte 14 Nordeste 0 -- -- 30
2019-03-21 17:00:00 15.4 7 Nordeste 17 Nordeste 0 -- -- 27
2019-03-21 16:00:00 15.1 8 Nordeste 16 Nordeste 0 -- -- 31
2019-03-21 15:00:00 14.7 7 Sur 15 Sur 0 -- -- 26
2019-03-21 14:00:00 13.8 8 Sur 21 Sur 0 -- -- 22
2019-03-21 13:00:00 12.9 12 Sur 22 Sur 0 -- -- 25
2019-03-21 12:00:00 12 12 Sur 26 Sur 0 -- -- 28
2019-03-21 11:00:00 9.5 16 Sur 29 Sur 0 -- -- 32
2019-03-21 10:00:00 7.9 18 Sur 35 Sur 0 -- -- 33
2019-03-21 09:00:00 7.2 10 Sur 27 Sur 0 -- -- 32
2019-03-21 08:00:00 4.3 10 Sudoeste 35 Sudeste 0 -- -- 35
2019-03-21 07:00:00 4.6 18 Sur 35 Sur 0 -- -- 35
2019-03-21 06:00:00 5 10 Sur 28 Sur 0 -- -- 41
2019-03-21 05:00:00 5.1 9 Sur 24 Sur 0 -- -- 49
2019-03-21 04:00:00 4.4 0 Calma 6 Sudeste 0 -- -- 64
2019-03-21 03:00:00 4.9 0 Calma 9 Sur 0 -- -- 66
2019-03-21 02:00:00 6.2 4 Noroeste 9 Oeste 0 -- -- 58
2019-03-21 01:00:00 5.2 2 Nordeste 5 Norte 0 -- -- 73
2019-03-21 00:00:00 4.3 3 Sudeste 6 Norte 0 -- -- 85
2019-03-20 23:00:00 4.8 0 Calma 5 Noroeste 0 -- -- 86
2019-03-20 22:00:00 5.2 2 Noroeste 7 Norte 0 -- -- 83
2019-03-20 21:00:00 5.9 3 Noroeste 15 Norte 0 -- -- 80
2019-03-20 20:00:00 7.7 8 Norte 17 Norte 0 -- -- 73
2019-03-20 19:00:00 9.1 10 Norte 19 Norte 0 -- -- 67
2019-03-20 18:00:00 12.7 9 Norte 18 Nordeste 0 -- -- 53
2019-03-20 17:00:00 14.1 9 Norte 23 Nordeste 0 -- -- 48
2019-03-20 16:00:00 14.1 6 Nordeste 19 Nordeste 0 -- -- 48
2019-03-20 15:00:00 12.4 10 Nordeste 21 Norte 0 -- -- 54
2019-03-20 14:00:00 11.8 7 Nordeste 19 Nordeste 0 -- -- 56
2019-03-20 13:00:00 10.8 7 Nordeste 15 Norte 0 -- -- 58
2019-03-20 12:00:00 9.4 7 Sudeste 12 Sudeste 0 -- -- 64
2019-03-20 11:00:00 7.4 7 Sur 12 Sur 0 -- -- 85
2019-03-20 10:00:00 4.4 3 Sur 6 Sur 0 -- -- 92
2019-03-20 09:00:00 4.1 2 Sudeste 6 Sur 0 -- -- 89
2019-03-20 08:00:00 0.5 0 Calma 4 Norte 0 -- -- 96
2019-03-20 07:00:00 0.4 3 Norte 6 Norte 0 -- -- 96
2019-03-20 06:00:00 0.4 3 Norte 6 Noroeste 0 -- -- 96
2019-03-20 05:00:00 0.3 3 Norte 8 Nordeste 0 -- -- 95
2019-03-20 04:00:00 1.3 2 Norte 6 Norte 0 -- -- 94
2019-03-20 03:00:00 1.8 3 Norte 7 Oeste 0 -- -- 94
2019-03-20 02:00:00 2 4 Norte 6 Norte 0 -- -- 94
2019-03-20 01:00:00 2.5 4 Norte 6 Norte 0 -- -- 92
2019-03-20 00:00:00 2.6 3 Noroeste 8 Norte 0 -- -- 91
2019-03-19 23:00:00 2.9 3 Noroeste 7 Norte 0 -- -- 91
2019-03-19 22:00:00 3.1 3 Noroeste 8 Noroeste 0 -- -- 89
2019-03-19 21:00:00 3.9 3 Norte 17 Norte 0 -- -- 86
2019-03-19 20:00:00 4.8 8 Norte 18 Norte 0 -- -- 83
2019-03-19 19:00:00 6 10 Norte 19 Norte 0 -- -- 77
2019-03-19 18:00:00 8.9 8 Norte 20 Nordeste 0 -- -- 66
2019-03-19 17:00:00 9.9 9 Norte 23 Nordeste 0 -- -- 62
2019-03-19 16:00:00 9.7 12 Norte 28 Norte 0 -- -- 63
2019-03-19 15:00:00 9.7 10 Norte 21 Nordeste 0 -- -- 62
2019-03-19 14:00:00 9.2 10 Norte 22 Este 0 -- -- 66
2019-03-19 13:00:00 7.1 6 Norte 19 Nordeste 0 -- -- 71
2019-03-19 12:00:00 7.4 8 Nordeste 19 Nordeste 0 -- -- 73
2019-03-19 11:00:00 4.7 6 Norte 17 Nordeste 0 -- -- 83
2019-03-19 10:00:00 2.8 5 Norte 14 Noroeste 0 -- -- 86
2019-03-19 09:00:00 4.8 0 Calma 5 Norte 0 -- -- 75
2019-03-19 08:00:00 0.4 0 Calma 8 Noroeste 0 -- -- 88
2019-03-19 07:00:00 0.1 4 Noroeste 8 Noroeste 0 -- -- 89
2019-03-19 06:00:00 -0.1 0 Calma 9 Noroeste 0 -- -- 87
2019-03-19 05:00:00 -0.1 2 Noroeste 12 Norte 0 -- -- 86
2019-03-19 04:00:00 0.7 8 Norte 13 Nordeste 0 -- -- 82
2019-03-19 03:00:00 1.1 6 Noroeste 17 Norte 0 -- -- 81
2019-03-19 02:00:00 0.6 5 Noroeste 13 Norte 0 -- -- 88
2019-03-19 01:00:00 0.9 7 Norte 18 Norte 0 -- -- 87
2019-03-19 00:00:00 1.4 8 Norte 18 Noroeste 0 -- -- 88